createdAt,value
2018-07-03T00:01:59.841Z,0.87
2018-07-03T00:04:28.841Z,0.60
2018-07-03T00:06:57.913Z,0.73
2018-07-03T00:09:26.908Z,0.70
2018-07-03T00:11:55.953Z,1.20
2018-07-03T00:14:24.945Z,0.90
2018-07-03T00:16:59.188Z,0.80
2018-07-03T00:19:28.176Z,0.83
2018-07-03T00:21:57.300Z,0.87
2018-07-03T00:24:26.352Z,1.13
2018-07-03T00:26:55.348Z,0.70
2018-07-03T00:29:24.836Z,0.80
2018-07-03T00:31:53.880Z,0.80
2018-07-03T00:34:23.093Z,0.83
2018-07-03T00:36:52.372Z,1.00
2018-07-03T00:39:21.363Z,1.17
2018-07-03T00:41:50.360Z,0.70
2018-07-03T00:44:19.385Z,1.00
2018-07-03T00:46:48.422Z,0.90
2018-07-03T00:49:17.409Z,0.73
2018-07-03T00:51:46.451Z,0.80
2018-07-03T00:54:15.537Z,0.77
2018-07-03T00:56:44.593Z,0.97
2018-07-03T00:59:13.615Z,0.80
2018-07-03T01:01:42.608Z,1.00
2018-07-03T01:04:11.625Z,0.77
2018-07-03T01:06:40.621Z,0.97
2018-07-03T01:09:10.093Z,1.00
2018-07-03T01:11:39.853Z,0.90
2018-07-03T01:14:08.893Z,1.00
2018-07-03T01:16:37.880Z,0.90
2018-07-03T01:19:06.868Z,0.80
2018-07-03T01:21:35.980Z,1.20
2018-07-03T01:24:04.977Z,1.00
2018-07-03T01:26:34.017Z,0.93
2018-07-03T01:29:03.014Z,1.23
2018-07-03T01:31:32.009Z,0.77
2018-07-03T01:34:01.033Z,1.00
2018-07-03T01:36:30.083Z,1.00
2018-07-03T01:38:59.073Z,0.90
2018-07-03T01:41:28.101Z,1.00
2018-07-03T01:43:57.088Z,1.00
2018-07-03T01:46:26.119Z,1.73
2018-07-03T01:48:55.121Z,1.43
2018-07-03T01:51:24.180Z,1.00
2018-07-03T01:53:53.222Z,0.80
2018-07-03T01:56:22.200Z,1.40
2018-07-03T01:58:51.369Z,0.90
2018-07-03T02:01:20.396Z,0.90
2018-07-03T02:03:49.433Z,1.33
2018-07-03T02:06:18.429Z,0.83
2018-07-03T02:08:47.412Z,0.90
2018-07-03T02:11:16.497Z,0.87
2018-07-03T02:13:45.528Z,0.80
2018-07-03T02:16:14.516Z,0.80
2018-07-03T02:18:43.515Z,0.90
2018-07-03T02:21:12.874Z,1.00
2018-07-03T02:23:42.282Z,1.13
2018-07-03T02:26:11.285Z,1.00
2018-07-03T02:28:40.309Z,1.10
2018-07-03T02:31:09.328Z,0.90
2018-07-03T02:33:38.361Z,0.97
2018-07-03T02:36:07.409Z,1.00
2018-07-03T02:38:36.404Z,1.43
2018-07-03T02:41:05.742Z,1.00
2018-07-03T02:43:34.733Z,0.90
2018-07-03T02:46:03.729Z,1.20
2018-07-03T02:48:32.747Z,1.23
2018-07-03T02:51:01.732Z,1.27
2018-07-03T02:53:30.861Z,1.00
2018-07-03T02:56:06.593Z,0.97
2018-07-03T02:58:35.621Z,1.30
2018-07-03T03:01:04.985Z,1.53
2018-07-03T03:03:34.112Z,1.03
2018-07-03T03:06:03.136Z,1.00
2018-07-03T03:08:32.130Z,1.30
2018-07-03T03:11:01.129Z,1.00
2018-07-03T03:13:30.409Z,1.60
2018-07-03T03:15:59.397Z,1.37
2018-07-03T03:18:28.395Z,1.20
2018-07-03T03:20:57.426Z,1.40
2018-07-03T03:23:26.597Z,1.63
2018-07-03T03:25:55.773Z,1.60
2018-07-03T03:28:24.790Z,1.10
2018-07-03T03:30:53.785Z,1.07
2018-07-03T03:33:23.103Z,1.40
2018-07-03T03:35:52.108Z,1.30
2018-07-03T03:38:21.113Z,1.77
2018-07-03T03:40:50.246Z,1.97
2018-07-03T03:43:19.277Z,1.27
2018-07-03T03:45:48.277Z,1.20
2018-07-03T03:48:17.404Z,1.30
2018-07-03T03:50:46.421Z,1.17
2018-07-03T03:53:15.462Z,1.13
2018-07-03T03:55:44.461Z,1.17
2018-07-03T03:58:13.493Z,1.20
2018-07-03T04:00:42.476Z,1.50
2018-07-03T04:03:11.526Z,1.17
2018-07-03T04:05:40.544Z,1.20
2018-07-03T04:08:09.536Z,1.00
2018-07-03T04:10:38.569Z,1.50
2018-07-03T04:13:07.592Z,1.07
2018-07-03T04:15:36.582Z,1.27
2018-07-03T04:18:05.817Z,1.20
2018-07-03T04:20:35.021Z,1.50
2018-07-03T04:23:04.321Z,1.00
2018-07-03T04:25:33.353Z,1.13
2018-07-03T04:28:02.343Z,1.20
2018-07-03T04:30:31.364Z,1.30
2018-07-03T04:33:00.343Z,1.00
2018-07-03T04:35:29.418Z,1.00
2018-07-03T04:37:58.436Z,0.93
2018-07-03T04:40:27.461Z,0.73
2018-07-03T04:42:56.445Z,1.07
2018-07-03T04:45:25.647Z,0.87
2018-07-03T04:47:54.689Z,0.80
2018-07-03T04:50:23.762Z,0.77
2018-07-03T04:52:52.775Z,0.80
2018-07-03T04:55:21.797Z,0.80
2018-07-03T04:57:50.997Z,0.97
2018-07-03T05:00:19.990Z,0.90
2018-07-03T05:02:48.984Z,0.80
2018-07-03T05:05:18.035Z,0.83
2018-07-03T05:07:47.045Z,0.70
2018-07-03T05:10:16.077Z,1.00
2018-07-03T05:12:45.136Z,0.80
2018-07-03T05:15:14.128Z,1.60
2018-07-03T05:17:43.168Z,0.70
2018-07-03T05:20:12.461Z,0.80
2018-07-03T05:22:41.598Z,0.80
2018-07-03T05:25:10.586Z,0.70
2018-07-03T05:27:39.780Z,0.90
2018-07-03T05:30:08.916Z,0.83
2018-07-03T05:32:37.971Z,1.10
2018-07-03T05:35:07.275Z,0.70
2018-07-03T05:37:36.305Z,1.10
2018-07-03T05:40:05.632Z,0.70
2018-07-03T05:42:34.651Z,0.87
2018-07-03T05:45:03.667Z,0.70
2018-07-03T05:47:32.692Z,1.23
2018-07-03T05:50:01.722Z,0.60
2018-07-03T05:52:30.708Z,0.60
2018-07-03T05:54:59.732Z,0.70
2018-07-03T05:57:28.989Z,0.60
2018-07-03T05:59:57.976Z,0.60
2018-07-03T06:02:26.964Z,0.60
2018-07-03T06:04:55.982Z,0.63
2018-07-03T06:07:24.967Z,0.60
2018-07-03T06:09:53.993Z,0.80
2018-07-03T06:12:23.067Z,0.60
2018-07-03T06:14:52.100Z,0.50
2018-07-03T06:17:21.136Z,0.60
2018-07-03T06:19:50.223Z,0.60
2018-07-03T06:22:19.164Z,0.50
2018-07-03T06:24:48.153Z,0.80
2018-07-03T06:27:17.357Z,0.47
2018-07-03T06:29:46.350Z,0.50
2018-07-03T06:32:15.341Z,0.50
2018-07-03T06:34:44.723Z,0.60
2018-07-03T06:37:13.780Z,0.60
2018-07-03T06:39:42.746Z,0.60
2018-07-03T06:42:11.781Z,0.70
2018-07-03T06:44:40.863Z,0.50
2018-07-03T06:47:09.792Z,0.50
2018-07-03T06:49:38.813Z,0.60
2018-07-03T06:52:08.033Z,0.60
2018-07-03T06:54:37.012Z,0.40
2018-07-03T06:57:05.998Z,0.60
2018-07-03T06:59:35.028Z,0.50
2018-07-03T07:02:04.012Z,0.50
2018-07-03T07:04:33.014Z,0.50
2018-07-03T07:07:02.048Z,0.50
2018-07-03T07:09:31.157Z,0.50
2018-07-03T07:12:00.077Z,0.50
2018-07-03T07:14:29.060Z,0.40
2018-07-03T07:16:58.093Z,0.50
2018-07-03T07:19:27.128Z,0.63
2018-07-03T07:21:56.169Z,0.50
2018-07-03T07:24:25.189Z,0.40
2018-07-03T07:26:54.264Z,0.40
2018-07-03T07:29:23.259Z,0.60
2018-07-03T07:31:52.432Z,0.47
2018-07-03T07:34:21.461Z,0.40
2018-07-03T07:36:50.445Z,0.60
2018-07-03T07:39:19.475Z,0.50
2018-07-03T07:41:48.476Z,0.60
2018-07-03T07:44:17.488Z,0.50
2018-07-03T07:46:46.557Z,0.50
2018-07-03T07:49:15.542Z,0.60
2018-07-03T07:51:44.561Z,0.50
2018-07-03T07:54:13.593Z,0.53
2018-07-03T07:56:42.581Z,0.50
2018-07-03T07:59:11.601Z,0.50
2018-07-03T08:01:40.876Z,0.50
2018-07-03T08:04:09.908Z,0.50
2018-07-03T08:06:38.983Z,0.50
2018-07-03T08:09:09.577Z,0.57
2018-07-03T08:11:38.609Z,0.50
2018-07-03T08:14:07.819Z,0.60
2018-07-03T08:16:36.944Z,0.60
2018-07-03T08:19:05.956Z,0.50
2018-07-03T08:21:35.311Z,0.50
2018-07-03T08:24:04.364Z,0.70
2018-07-03T08:26:33.415Z,0.80
2018-07-03T08:29:02.393Z,0.53
2018-07-03T08:31:31.381Z,0.50
2018-07-03T08:34:00.422Z,0.50
2018-07-03T08:36:29.404Z,0.80
2018-07-03T08:38:58.588Z,0.60
2018-07-03T08:41:27.627Z,0.60
2018-07-03T08:43:56.645Z,0.53
2018-07-03T08:46:25.677Z,0.50
2018-07-03T08:48:54.696Z,0.57
2018-07-03T08:51:23.681Z,0.50
2018-07-03T08:53:52.706Z,1.03
2018-07-03T08:56:21.696Z,0.70
2018-07-03T08:58:51.113Z,0.60
2018-07-03T09:01:20.117Z,0.50
2018-07-03T09:03:49.148Z,0.50
2018-07-03T09:06:18.133Z,0.50
2018-07-03T09:08:47.148Z,0.50
2018-07-03T09:11:16.203Z,0.60
2018-07-03T09:13:45.228Z,0.57
2018-07-03T09:16:14.221Z,0.50
2018-07-03T09:18:43.474Z,0.67
2018-07-03T09:21:12.448Z,0.50
2018-07-03T09:23:41.442Z,0.70
2018-07-03T09:26:10.476Z,0.50
2018-07-03T09:28:39.452Z,0.50
2018-07-03T09:31:08.476Z,0.50
2018-07-03T09:33:37.553Z,0.50
2018-07-03T09:36:06.837Z,0.60
2018-07-03T09:38:35.822Z,0.53
2018-07-03T09:41:04.877Z,0.80
2018-07-03T09:43:33.905Z,0.50
2018-07-03T09:46:02.884Z,0.40
2018-07-03T09:48:31.919Z,0.60
2018-07-03T09:51:00.900Z,0.60
2018-07-03T09:53:29.921Z,0.60
2018-07-03T09:55:58.963Z,0.60
2018-07-03T09:58:28.022Z,0.50
2018-07-03T10:00:57.876Z,0.40
2018-07-03T10:03:28.268Z,0.63
2018-07-03T10:05:58.963Z,0.70
2018-07-03T10:08:28.953Z,0.70
2018-07-03T10:10:57.928Z,1.17
2018-07-03T10:13:26.957Z,0.80
2018-07-03T10:15:55.954Z,0.60
2018-07-03T10:18:25.144Z,0.60
2018-07-03T10:20:54.550Z,0.67
2018-07-03T10:23:23.534Z,0.60
2018-07-03T10:25:52.596Z,0.50
2018-07-03T10:28:21.616Z,0.60
2018-07-03T10:30:50.920Z,0.50
2018-07-03T10:33:19.896Z,0.60
2018-07-03T10:35:48.936Z,0.50
2018-07-03T10:38:18.000Z,0.50
2018-07-03T10:40:47.059Z,0.50
2018-07-03T10:43:16.042Z,0.50
2018-07-03T10:45:45.060Z,0.50
2018-07-03T10:48:14.058Z,0.70
2018-07-03T10:50:42.795Z,0.50
2018-07-03T10:53:11.748Z,0.50
2018-07-03T10:55:40.800Z,0.60
2018-07-03T10:58:09.784Z,0.50
2018-07-03T11:00:38.836Z,0.57
2018-07-03T11:03:07.828Z,0.60
2018-07-03T11:05:36.989Z,0.50
2018-07-03T11:08:05.980Z,0.50
2018-07-03T11:10:35.005Z,0.50
2018-07-03T11:13:04.032Z,0.60
2018-07-03T11:15:33.068Z,0.50
2018-07-03T11:18:02.121Z,0.50
2018-07-03T11:20:31.112Z,0.50
2018-07-03T11:23:00.158Z,0.40
2018-07-03T11:25:29.185Z,0.60
2018-07-03T11:27:58.204Z,0.70
2018-07-03T11:30:27.209Z,0.50
2018-07-03T11:32:56.188Z,0.50
2018-07-03T11:35:25.553Z,0.60
2018-07-03T11:37:54.537Z,0.77
2018-07-03T11:40:23.525Z,0.50
2018-07-03T11:42:52.579Z,0.60
2018-07-03T11:45:21.671Z,0.60
2018-07-03T11:47:50.685Z,1.73
2018-07-03T11:50:19.664Z,0.60
2018-07-03T11:52:48.697Z,0.70
2018-07-03T11:55:17.735Z,0.50
2018-07-03T11:57:46.729Z,0.60
2018-07-03T12:00:16.155Z,0.60
2018-07-03T12:02:45.194Z,0.50
2018-07-03T12:05:14.181Z,0.50
2018-07-03T12:07:43.209Z,0.40
2018-07-03T12:10:12.752Z,0.50
2018-07-03T12:12:41.760Z,0.40
2018-07-03T12:15:10.753Z,0.60
2018-07-03T12:17:39.809Z,0.70
2018-07-03T12:20:08.785Z,0.50
2018-07-03T12:22:38.006Z,0.50
2018-07-03T12:25:07.025Z,0.47
2018-07-03T12:27:36.025Z,0.50
2018-07-03T12:30:07.816Z,0.50
2018-07-03T12:32:36.802Z,0.60
2018-07-03T12:35:06.304Z,0.50
2018-07-03T12:37:35.300Z,0.60
2018-07-03T12:40:04.616Z,0.50
2018-07-03T12:42:33.645Z,0.60
2018-07-03T12:45:02.721Z,0.50
2018-07-03T12:47:31.705Z,0.90
2018-07-03T12:50:00.738Z,0.60
2018-07-03T12:52:29.776Z,1.27
2018-07-03T12:54:58.813Z,0.70
2018-07-03T12:57:27.827Z,0.60
2018-07-03T12:59:56.801Z,0.50
2018-07-03T13:02:26.088Z,0.40
2018-07-03T13:04:55.097Z,0.47
2018-07-03T13:07:24.085Z,0.60
2018-07-03T13:09:53.196Z,0.50
2018-07-03T13:12:22.204Z,0.50
2018-07-03T13:14:51.232Z,0.50
2018-07-03T13:17:20.214Z,0.70
2018-07-03T13:19:49.209Z,0.50
2018-07-03T13:22:18.533Z,0.60
2018-07-03T13:24:47.591Z,0.50
2018-07-03T13:27:16.576Z,0.47
2018-07-03T13:29:45.683Z,0.60
2018-07-03T13:32:14.634Z,0.60
2018-07-03T13:34:43.623Z,0.50
2018-07-03T13:37:12.741Z,0.60
2018-07-03T13:39:41.732Z,0.70
2018-07-03T13:42:10.765Z,0.50
2018-07-03T13:44:39.741Z,0.50
2018-07-03T13:47:08.760Z,0.60
2018-07-03T13:49:37.863Z,0.60
2018-07-03T13:52:06.839Z,0.50
2018-07-03T13:54:35.869Z,0.60
2018-07-03T13:57:04.941Z,0.60
2018-07-03T13:59:33.976Z,0.67
2018-07-03T14:02:03.337Z,0.60
2018-07-03T14:04:32.565Z,0.73
2018-07-03T14:07:01.560Z,0.50
2018-07-03T14:09:30.532Z,0.60
2018-07-03T14:11:59.562Z,0.50
2018-07-03T14:14:28.591Z,0.50
2018-07-03T14:16:57.572Z,0.50
2018-07-03T14:19:26.600Z,0.60
2018-07-03T14:21:55.916Z,0.53
2018-07-03T14:24:24.921Z,0.50
2018-07-03T14:26:54.060Z,0.60
2018-07-03T14:29:23.092Z,0.60
2018-07-03T14:31:52.152Z,0.50
2018-07-03T14:34:21.173Z,0.60
2018-07-03T14:36:50.203Z,0.50
2018-07-03T14:39:19.329Z,0.50
2018-07-03T14:41:48.438Z,0.60
2018-07-03T14:44:17.411Z,0.50
2018-07-03T14:46:46.445Z,0.40
2018-07-03T14:49:15.429Z,0.73
2018-07-03T14:51:44.456Z,0.50
2018-07-03T14:54:13.537Z,0.50
2018-07-03T14:56:42.356Z,0.50
2018-07-03T14:59:11.849Z,0.50
2018-07-03T15:01:40.859Z,0.57
2018-07-03T15:04:09.904Z,0.60
2018-07-03T15:06:38.932Z,0.53
2018-07-03T15:09:09.978Z,0.50
2018-07-03T15:11:39.183Z,0.43
2018-07-03T15:14:08.217Z,0.60
2018-07-03T15:16:37.252Z,0.70
2018-07-03T15:19:12.153Z,0.60
2018-07-03T15:21:41.408Z,0.50
2018-07-03T15:24:10.544Z,0.60
2018-07-03T15:26:40.988Z,0.50
2018-07-03T15:29:11.232Z,0.50
2018-07-03T15:31:40.276Z,0.50
2018-07-03T15:34:10.261Z,0.67
2018-07-03T15:36:39.243Z,0.40
2018-07-03T15:39:10.732Z,0.60
2018-07-03T15:41:40.308Z,0.53
2018-07-03T15:44:20.972Z,0.70
2018-07-03T15:46:50.602Z,0.60
2018-07-03T15:49:19.580Z,0.50
2018-07-03T15:51:48.600Z,0.50
2018-07-03T15:54:17.617Z,1.90
2018-07-03T15:56:46.471Z,0.50
2018-07-03T15:59:15.377Z,0.60
2018-07-03T16:01:44.364Z,1.00
2018-07-03T16:05:28.392Z,0.73
2018-07-03T16:10:09.120Z,0.50
2018-07-03T16:12:38.377Z,0.53
2018-07-03T16:15:08.149Z,0.50
2018-07-03T16:17:37.171Z,0.50
2018-07-03T16:20:11.754Z,0.60
2018-07-03T16:22:40.782Z,0.50
2018-07-03T16:25:10.186Z,0.60
2018-07-03T16:27:39.182Z,0.50
2018-07-03T16:30:08.888Z,0.70
2018-07-03T16:32:38.105Z,0.50
2018-07-03T16:35:07.169Z,0.40
2018-07-03T16:37:36.201Z,0.53
2018-07-03T16:40:05.520Z,0.60
2018-07-03T16:42:34.535Z,0.50
2018-07-03T16:45:03.568Z,0.50
2018-07-03T16:47:32.609Z,0.60
2018-07-03T16:50:01.705Z,0.50
2018-07-03T16:52:30.727Z,0.50
2018-07-03T16:54:59.717Z,0.60
2018-07-03T16:57:28.634Z,0.60
2018-07-03T16:59:57.633Z,0.53
2018-07-03T17:02:26.690Z,0.50
2018-07-03T17:04:55.680Z,0.67
2018-07-03T17:07:24.741Z,0.80
2018-07-03T17:09:53.772Z,0.83
2018-07-03T17:12:22.949Z,0.80
2018-07-03T17:14:51.968Z,0.60
2018-07-03T17:17:20.963Z,0.70
2018-07-03T17:19:50.042Z,0.73
2018-07-03T17:22:19.109Z,0.67
2018-07-03T17:24:48.242Z,0.70
2018-07-03T17:27:17.304Z,0.70
2018-07-03T17:29:46.309Z,1.63
2018-07-03T17:32:15.309Z,0.60
2018-07-03T17:34:44.355Z,0.53
2018-07-03T17:37:13.368Z,0.70
2018-07-03T17:39:54.136Z,0.60
2018-07-03T17:42:34.541Z,0.70
2018-07-03T17:45:43.760Z,0.70
2018-07-03T17:48:13.720Z,0.60
2018-07-03T17:50:43.027Z,0.50
2018-07-03T17:53:12.019Z,0.80
2018-07-03T17:55:41.013Z,0.63
2018-07-03T17:58:10.066Z,0.60
2018-07-03T18:00:39.340Z,0.80
2018-07-03T18:03:08.393Z,0.80
2018-07-03T18:05:37.804Z,0.60
2018-07-03T18:08:06.861Z,0.70
2018-07-03T18:10:35.885Z,0.70
2018-07-03T18:13:05.373Z,0.57
2018-07-03T18:15:34.395Z,0.70
2018-07-03T18:18:03.658Z,0.80
2018-07-03T18:20:32.709Z,0.80
2018-07-03T18:23:01.705Z,0.70
2018-07-03T18:25:30.976Z,0.60
2018-07-03T18:28:00.253Z,0.80
2018-07-03T18:30:29.556Z,0.70
2018-07-03T18:32:58.633Z,0.90
2018-07-03T18:35:29.164Z,1.37
2018-07-03T18:37:58.164Z,0.70
2018-07-03T18:40:27.229Z,0.70
2018-07-03T18:42:56.680Z,0.60
2018-07-03T18:45:25.743Z,0.90
2018-07-03T18:47:54.740Z,0.77
2018-07-03T18:50:23.724Z,0.70
2018-07-03T18:52:52.969Z,0.67
2018-07-03T18:55:22.248Z,0.90
2018-07-03T18:57:51.518Z,0.90
2018-07-03T19:00:20.618Z,0.70
2018-07-03T19:02:50.075Z,0.90
2018-07-03T19:05:20.035Z,0.87
2018-07-03T19:07:49.034Z,1.53
2018-07-03T19:10:18.053Z,0.90
2018-07-03T19:12:47.080Z,1.43
2018-07-03T19:15:16.099Z,1.13
2018-07-03T19:17:45.165Z,1.00
2018-07-03T19:20:15.080Z,0.83
2018-07-03T19:22:44.138Z,0.93
2018-07-03T19:25:13.192Z,0.80
2018-07-03T19:27:42.218Z,0.80
2018-07-03T19:30:11.262Z,0.70
2018-07-03T19:32:40.497Z,0.87
2018-07-03T19:35:10.324Z,0.70
2018-07-03T19:37:39.309Z,0.73
2018-07-03T19:40:08.946Z,0.83
2018-07-03T19:42:42.335Z,1.20
2018-07-03T19:45:11.479Z,0.80
2018-07-03T19:47:40.493Z,0.70
2018-07-03T19:50:09.304Z,1.10
2018-07-03T19:52:38.212Z,1.10
2018-07-03T19:55:07.211Z,0.73
2018-07-03T19:57:36.309Z,0.73
2018-07-03T20:00:06.006Z,0.83
2018-07-03T20:02:35.037Z,0.83
2018-07-03T20:05:04.099Z,0.80
2018-07-03T20:07:33.132Z,0.90
2018-07-03T20:10:02.344Z,1.00
2018-07-03T20:12:31.424Z,1.00
2018-07-03T20:15:00.413Z,1.00
2018-07-03T20:17:29.673Z,1.10
2018-07-03T20:19:58.652Z,1.03
2018-07-03T20:22:27.628Z,0.80
2018-07-03T20:24:56.687Z,0.90
2018-07-03T20:27:25.675Z,0.97
2018-07-03T20:29:54.692Z,1.17
2018-07-03T20:32:23.717Z,0.77
2018-07-03T20:34:52.749Z,1.23
2018-07-03T20:37:21.750Z,1.00
2018-07-03T20:39:50.773Z,1.40
2018-07-03T20:42:19.824Z,1.63
2018-07-03T20:44:48.816Z,1.13
2018-07-03T20:47:17.804Z,1.30
2018-07-03T20:49:46.962Z,0.93
2018-07-03T20:52:16.194Z,1.13
2018-07-03T20:54:45.176Z,1.07
2018-07-03T20:57:14.212Z,1.00
2018-07-03T20:59:43.206Z,0.97
2018-07-03T21:02:12.197Z,2.53
2018-07-03T21:04:41.244Z,1.63
2018-07-03T21:07:10.233Z,1.37
2018-07-03T21:09:39.217Z,1.27
2018-07-03T21:12:08.228Z,1.33
2018-07-03T21:14:38.838Z,1.20
2018-07-03T21:17:07.827Z,1.10
2018-07-03T21:19:36.852Z,1.10
2018-07-03T21:22:05.868Z,1.63
2018-07-03T21:24:34.933Z,1.47
2018-07-03T21:27:03.919Z,2.30
2018-07-03T21:29:32.923Z,1.43
2018-07-03T21:32:02.205Z,2.07
2018-07-03T21:34:31.679Z,1.50
2018-07-03T21:37:00.667Z,1.83
2018-07-03T21:39:29.857Z,1.40
2018-07-03T21:41:58.901Z,1.80
2018-07-03T21:44:27.982Z,1.30
2018-07-03T21:46:56.759Z,1.63
2018-07-03T21:49:25.620Z,1.10
2018-07-03T21:51:54.632Z,1.77
2018-07-03T21:54:23.963Z,1.30
2018-07-03T21:56:52.957Z,1.63
2018-07-03T21:59:21.941Z,1.50
2018-07-03T22:01:51.087Z,1.20
2018-07-03T22:04:20.158Z,1.00
2018-07-03T22:06:49.149Z,1.37
2018-07-03T22:09:18.167Z,1.10
2018-07-03T22:11:47.190Z,1.33
2018-07-03T22:14:16.180Z,1.00
2018-07-03T22:16:45.201Z,1.00
2018-07-03T22:19:14.221Z,1.20
2018-07-03T22:21:43.246Z,0.97
2018-07-03T22:24:12.333Z,1.20
2018-07-03T22:26:41.376Z,1.20
2018-07-03T22:29:10.372Z,1.77
2018-07-03T22:31:39.386Z,1.50
2018-07-03T22:34:08.365Z,1.10
2018-07-03T22:36:37.464Z,1.33
2018-07-03T22:39:07.601Z,1.20
2018-07-03T22:41:36.886Z,1.50
2018-07-03T22:44:05.927Z,1.43
2018-07-03T22:46:34.914Z,1.07
2018-07-03T22:49:03.932Z,1.30
2018-07-03T22:51:32.914Z,1.67
2018-07-03T22:54:01.968Z,1.23
2018-07-03T22:56:30.992Z,1.13
2018-07-03T22:59:00.029Z,1.10
2018-07-03T23:01:29.008Z,1.87
2018-07-03T23:03:58.032Z,1.20
2018-07-03T23:06:27.052Z,1.30
2018-07-03T23:08:56.225Z,1.40
2018-07-03T23:11:25.204Z,1.10
2018-07-03T23:13:54.326Z,1.20
2018-07-03T23:16:23.348Z,1.23
2018-07-03T23:18:52.329Z,1.20
2018-07-03T23:21:21.312Z,1.10
2018-07-03T23:23:50.341Z,1.10
2018-07-03T23:26:19.324Z,1.33
2018-07-03T23:28:48.308Z,1.70
2018-07-03T23:31:17.357Z,1.20
2018-07-03T23:33:46.336Z,1.70
2018-07-03T23:36:15.556Z,1.60
2018-07-03T23:38:44.589Z,1.40
2018-07-03T23:41:13.568Z,1.53
2018-07-03T23:43:42.596Z,1.50
2018-07-03T23:46:10.653Z,1.13
2018-07-03T23:48:57.148Z,1.30
2018-07-03T23:51:43.825Z,1.20
2018-07-03T23:54:30.189Z,1.03
2018-07-03T23:57:16.733Z,1.40
